Time;durP1;ratioP1;P1;durP2;ratioP2;P2;SDS_P1;SDS_P2;PMS_P1;PMS_P2;Temp;Humidity;BMP_temperature;BMP_pressure;BME280_temperature;BME280_humidity;BME280_pressure;Samples;Min_cycle;Max_cycle;Signal;HPM_P1;HPM_P2
2022/01/22 00:00:56;;;;;;;3.13;2.40;;;6.30;99.90;;;;;;5071093;28;20194;-74
2022/01/22 00:03:23;;;;;;;5.17;3.10;;;6.30;99.90;;;;;;5082044;28;20235;-74
2022/01/22 00:05:50;;;;;;;5.87;3.23;;;6.30;99.90;;;;;;5090755;28;20205;-74
2022/01/22 00:08:19;;;;;;;7.13;4.27;;;6.30;99.90;;;;;;5091075;28;20235;-74
2022/01/22 00:10:47;;;;;;;6.13;3.50;;;6.30;99.90;;;;;;5091298;28;20202;-74
2022/01/22 00:15:59;;;;;;;7.20;3.10;;;6.30;99.90;;;;;;5090884;28;20270;-74
2022/01/22 00:18:26;;;;;;;10.17;4.10;;;6.40;99.90;;;;;;5090622;28;20250;-74
2022/01/22 00:20:53;;;;;;;5.83;3.30;;;6.40;99.90;;;;;;5090891;28;20193;-74
2022/01/22 00:23:26;;;;;;;8.13;4.10;;;6.40;99.90;;;;;;5090448;28;20282;-74
2022/01/22 00:25:54;;;;;;;4.93;3.63;;;6.40;99.90;;;;;;5090208;28;20210;-74
2022/01/22 00:28:21;;;;;;;5.67;3.33;;;6.40;99.90;;;;;;5090676;28;20252;-74
2022/01/22 00:30:48;;;;;;;4.30;2.80;;;6.30;99.90;;;;;;5090471;28;20263;-74
2022/01/22 00:33:16;;;;;;;5.07;2.93;;;6.30;99.90;;;;;;5090219;28;20213;-74
2022/01/22 00:35:43;;;;;;;9.20;4.97;;;6.30;99.90;;;;;;5090058;28;20202;-74
2022/01/22 00:38:10;;;;;;;4.87;3.37;;;6.30;99.90;;;;;;5090838;28;20663;-74
2022/01/22 00:40:38;;;;;;;3.90;2.67;;;6.30;99.90;;;;;;5092505;28;20227;-74
2022/01/22 00:43:05;;;;;;;4.70;3.13;;;6.30;99.90;;;;;;5092491;28;20197;-74
2022/01/22 00:45:32;;;;;;;4.93;3.00;;;6.40;99.90;;;;;;5082810;28;20233;-74
2022/01/22 00:47:59;;;;;;;5.50;2.93;;;6.30;99.90;;;;;;5083862;28;20224;-74
2022/01/22 00:50:26;;;;;;;5.17;4.07;;;6.40;99.90;;;;;;5075940;28;20249;-74
2022/01/22 00:52:53;;;;;;;5.27;2.97;;;6.40;99.90;;;;;;5070622;28;20324;-74
2022/01/22 00:55:20;;;;;;;5.60;3.57;;;6.40;99.90;;;;;;5083892;28;20377;-74
2022/01/22 00:57:49;;;;;;;5.53;3.13;;;6.40;99.90;;;;;;5089589;28;20201;-74
2022/01/22 01:00:17;;;;;;;7.07;3.20;;;6.40;99.90;;;;;;5088613;28;20262;-74
2022/01/22 01:02:45;;;;;;;6.20;3.80;;;6.30;99.90;;;;;;5088698;28;20638;-75
2022/01/22 01:05:13;;;;;;;5.37;3.10;;;6.30;99.90;;;;;;5072560;28;20242;-74
2022/01/22 01:07:41;;;;;;;4.17;3.00;;;6.30;99.90;;;;;;5071217;28;20202;-74
2022/01/22 01:10:10;;;;;;;5.13;3.73;;;6.30;99.90;;;;;;5081638;28;20670;-74
2022/01/22 01:12:38;;;;;;;3.90;2.50;;;6.30;99.90;;;;;;5089694;28;20240;-74
2022/01/22 01:15:17;;;;;;;4.63;2.80;;;6.30;99.90;;;;;;5075733;28;20593;-74
2022/01/22 01:18:05;;;;;;;3.30;2.60;;;6.30;99.90;;;;;;5086429;28;20335;-74
2022/01/22 01:34:18;;;;;;;3.13;2.17;;;6.30;99.90;;;;;;5070674;28;20575;-74
2022/01/22 01:36:46;;;;;;;3.77;2.50;;;6.30;99.90;;;;;;5079825;28;20213;-74
2022/01/22 01:39:17;;;;;;;3.30;2.20;;;6.30;99.90;;;;;;5079071;28;20498;-74
2022/01/22 01:41:52;;;;;;;2.20;1.93;;;6.30;99.90;;;;;;5090117;28;20198;-74
2022/01/22 01:44:19;;;;;;;2.70;2.07;;;6.30;99.90;;;;;;5073887;28;20197;-74
2022/01/22 01:46:49;;;;;;;3.97;2.20;;;6.30;99.90;;;;;;5086549;28;20194;-74
2022/01/22 01:49:17;;;;;;;3.03;1.87;;;6.30;99.90;;;;;;5090891;28;20220;-75
2022/01/22 01:51:44;;;;;;;3.33;2.20;;;6.30;99.90;;;;;;5090252;28;20666;-74
2022/01/22 01:54:26;;;;;;;2.53;2.30;;;6.30;99.90;;;;;;5081644;28;20335;-74
2022/01/22 01:59:39;;;;;;;2.27;2.07;;;6.40;99.90;;;;;;5081695;28;20217;-74
2022/01/22 02:02:08;;;;;;;2.70;2.13;;;6.30;99.90;;;;;;5091650;28;20198;-74
2022/01/22 02:04:35;;;;;;;2.73;2.43;;;6.30;99.90;;;;;;5094256;28;20210;-74
2022/01/22 02:07:01;;;;;;;2.60;2.40;;;6.40;99.90;;;;;;5094282;28;20495;-74
2022/01/22 02:09:28;;;;;;;2.20;2.00;;;6.30;99.90;;;;;;5093774;28;20208;-74
2022/01/22 02:12:06;;;;;;;2.67;2.10;;;6.30;99.90;;;;;;5089334;28;20208;-74
2022/01/22 02:25:41;;;;;;;3.10;2.27;;;6.40;99.90;;;;;;5084758;28;20220;-74
2022/01/22 02:28:08;;;;;;;2.93;2.33;;;6.40;99.90;;;;;;5075355;28;20550;-74
2022/01/22 02:30:38;;;;;;;2.67;1.97;;;6.40;99.90;;;;;;5086806;28;20293;-74
2022/01/22 02:33:22;;;;;;;5.47;2.53;;;6.40;99.90;;;;;;5074007;28;20684;-74
2022/01/22 02:35:52;;;;;;;4.43;2.60;;;6.40;99.90;;;;;;5093529;28;20228;-74
2022/01/22 02:38:29;;;;;;;4.17;2.67;;;6.40;99.90;;;;;;5093975;28;20194;-74
2022/01/22 02:40:56;;;;;;;4.20;3.10;;;6.40;99.90;;;;;;5093971;28;20202;-74
2022/01/22 02:43:24;;;;;;;5.70;3.13;;;6.40;99.90;;;;;;5093084;28;20193;-74
2022/01/22 02:45:51;;;;;;;4.30;2.90;;;6.40;99.90;;;;;;5093136;28;20189;-74
2022/01/22 02:48:18;;;;;;;5.90;2.93;;;6.40;99.90;;;;;;5085569;28;20667;-74
2022/01/22 02:50:45;;;;;;;5.17;3.00;;;6.40;99.90;;;;;;5093399;28;20300;-74
2022/01/22 02:53:14;;;;;;;4.03;2.87;;;6.40;99.90;;;;;;5092071;28;20561;-74
2022/01/22 02:55:44;;;;;;;4.10;2.60;;;6.40;99.90;;;;;;5093453;28;20767;-74
2022/01/22 02:58:11;;;;;;;4.73;2.90;;;6.40;99.90;;;;;;5076818;28;20205;-74
2022/01/22 03:00:38;;;;;;;5.97;3.20;;;6.50;99.90;;;;;;5083056;28;20223;-74
2022/01/22 03:03:06;;;;;;;4.27;2.70;;;6.50;99.90;;;;;;5093598;28;20205;-74
2022/01/22 03:05:33;;;;;;;4.10;3.00;;;6.50;99.90;;;;;;5091002;28;20330;-74
2022/01/22 03:08:05;;;;;;;5.57;3.10;;;6.50;99.90;;;;;;5093373;28;20652;-74
2022/01/22 03:10:32;;;;;;;4.33;3.00;;;6.50;99.90;;;;;;5083047;28;20664;-74
2022/01/22 03:15:57;;;;;;;5.27;3.53;;;6.50;99.90;;;;;;5068919;28;20585;-74
2022/01/22 03:18:42;;;;;;;5.70;3.47;;;6.50;99.90;;;;;;5077997;28;20198;-74
2022/01/22 03:21:26;;;;;;;6.57;3.43;;;6.50;99.90;;;;;;5090048;28;20196;-74
2022/01/22 03:29:33;;;;;;;6.37;3.30;;;6.50;99.90;;;;;;5077085;28;20196;-74
2022/01/22 03:32:00;;;;;;;5.47;3.20;;;6.60;99.90;;;;;;5092355;28;20263;-74
2022/01/22 03:34:28;;;;;;;5.63;3.47;;;6.60;99.90;;;;;;5092356;28;20225;-74
2022/01/22 03:36:55;;;;;;;5.13;3.00;;;6.60;99.90;;;;;;5092392;28;20315;-74
2022/01/22 03:39:22;;;;;;;5.13;3.20;;;6.60;99.90;;;;;;5092521;28;20206;-74
2022/01/22 03:41:51;;;;;;;7.10;3.70;;;6.60;99.90;;;;;;5090942;28;20208;-74
2022/01/22 03:44:19;;;;;;;3.83;2.97;;;6.60;99.90;;;;;;5091518;28;20485;-74
2022/01/22 03:46:48;;;;;;;6.53;3.77;;;6.60;99.90;;;;;;5090463;28;20201;-74
2022/01/22 03:49:16;;;;;;;6.03;3.67;;;6.60;99.90;;;;;;5073087;28;20205;-74
2022/01/22 03:51:44;;;;;;;4.33;2.90;;;6.60;99.90;;;;;;5082055;28;20201;-74
2022/01/22 03:54:11;;;;;;;4.87;3.00;;;6.60;99.90;;;;;;5090740;28;20226;-75
2022/01/22 03:56:41;;;;;;;5.83;3.50;;;6.60;99.90;;;;;;5073861;28;20206;-74
2022/01/22 03:59:08;;;;;;;5.97;3.13;;;6.60;99.90;;;;;;5074996;28;20561;-74
2022/01/22 04:04:24;;;;;;;5.30;3.20;;;6.60;99.90;;;;;;5075622;28;20662;-74
2022/01/22 04:09:40;;;;;;;6.13;3.10;;;6.60;99.90;;;;;;5058331;28;20350;-74
2022/01/22 04:12:09;;;;;;;5.87;2.90;;;6.60;99.90;;;;;;5079821;28;20281;-74
2022/01/22 04:14:44;;;;;;;6.67;3.53;;;6.60;99.90;;;;;;5076901;28;20581;-74
2022/01/22 04:17:22;;;;;;;4.60;3.20;;;6.60;99.90;;;;;;5079398;28;20723;-74
2022/01/22 04:25:23;;;;;;;6.03;3.27;;;6.70;99.90;;;;;;5088000;28;20209;-74
2022/01/22 04:27:51;;;;;;;5.40;3.17;;;6.70;99.90;;;;;;5091965;28;20640;-74
2022/01/22 04:30:18;;;;;;;5.97;3.37;;;6.70;99.90;;;;;;5072810;28;20209;-74
2022/01/22 04:32:45;;;;;;;5.33;3.23;;;6.70;99.90;;;;;;5090504;28;20251;-74
2022/01/22 04:35:13;;;;;;;5.83;3.27;;;6.70;99.90;;;;;;5085134;28;20750;-74
2022/01/22 04:37:40;;;;;;;5.63;3.10;;;6.70;99.90;;;;;;5092841;28;20682;-68
2022/01/22 04:40:09;;;;;;;5.97;3.60;;;6.70;99.90;;;;;;5089686;28;20197;-68
2022/01/22 04:42:38;;;;;;;8.33;3.87;;;6.70;99.90;;;;;;5091535;28;20644;-68
2022/01/22 04:45:13;;;;;;;6.30;3.47;;;6.70;99.90;;;;;;5074771;28;20198;-68
2022/01/22 04:47:49;;;;;;;6.40;3.67;;;6.70;99.90;;;;;;5079488;28;20201;-68
2022/01/22 04:56:01;;;;;;;8.40;4.03;;;6.70;99.90;;;;;;5086852;28;20225;-68
2022/01/22 04:58:28;;;;;;;6.07;3.70;;;6.70;99.90;;;;;;5071422;28;20201;-68
2022/01/22 05:00:55;;;;;;;6.83;3.73;;;6.70;99.90;;;;;;5074918;28;20193;-68
2022/01/22 05:03:22;;;;;;;7.23;3.73;;;6.70;99.90;;;;;;5091237;28;20655;-68
2022/01/22 05:05:50;;;;;;;6.47;3.60;;;6.70;99.90;;;;;;5072643;28;20217;-69
2022/01/22 05:08:17;;;;;;;5.87;3.40;;;6.70;99.90;;;;;;5073335;28;20297;-69
2022/01/22 05:10:43;;;;;;;8.40;3.60;;;6.80;99.90;;;;;;5091481;28;20205;-69
2022/01/22 05:13:10;;;;;;;7.17;3.37;;;6.80;99.90;;;;;;5090350;28;20201;-74
2022/01/22 05:15:37;;;;;;;5.53;3.43;;;6.80;99.90;;;;;;5071189;28;20242;-75
2022/01/22 05:18:07;;;;;;;7.77;3.67;;;6.80;99.90;;;;;;5075719;28;20204;-69
2022/01/22 05:20:42;;;;;;;6.97;3.73;;;6.80;99.90;;;;;;5090167;28;20202;-69
2022/01/22 05:23:15;;;;;;;6.30;3.67;;;6.80;99.90;;;;;;5090448;28;20305;-69
2022/01/22 05:25:46;;;;;;;8.33;3.93;;;6.80;99.90;;;;;;5090396;28;20282;-69
2022/01/22 05:28:47;;;;;;;6.60;3.23;;;6.80;99.90;;;;;;5088842;28;20209;-69
2022/01/22 05:31:20;;;;;;;6.53;3.23;;;6.80;99.90;;;;;;5089953;28;20208;-69
2022/01/22 05:39:21;;;;;;;4.20;2.70;;;6.80;99.90;;;;;;5094360;28;20754;-69
2022/01/22 05:41:48;;;;;;;5.87;2.87;;;6.70;99.90;;;;;;5076538;28;20198;-69
2022/01/22 05:44:15;;;;;;;4.37;3.00;;;6.80;99.90;;;;;;5073531;28;20617;-69
2022/01/22 05:46:42;;;;;;;4.10;2.63;;;6.70;99.90;;;;;;5077947;28;20668;-74
2022/01/22 05:49:09;;;;;;;4.47;2.80;;;6.80;99.90;;;;;;5094971;28;20197;-72
2022/01/22 05:51:38;;;;;;;5.33;2.93;;;6.80;99.90;;;;;;5095331;28;20198;-72
2022/01/22 05:54:34;;;;;;;5.90;3.63;;;6.80;99.90;;;;;;5094236;28;20201;-74
2022/01/22 05:59:47;;;;;;;9.60;4.40;;;6.80;99.90;;;;;;5075695;28;20201;-73
2022/01/22 06:02:16;;;;;;;9.37;4.17;;;6.80;99.90;;;;;;5084117;28;20224;-73
2022/01/22 06:04:44;;;;;;;6.93;3.83;;;6.80;99.90;;;;;;5094501;28;20570;-72
2022/01/22 06:07:11;;;;;;;6.67;3.80;;;6.80;99.90;;;;;;5077599;28;20202;-73
2022/01/22 06:09:44;;;;;;;5.07;3.30;;;6.80;99.90;;;;;;5087799;28;20194;-72
2022/01/22 06:12:16;;;;;;;5.90;2.70;;;6.80;99.90;;;;;;5073098;28;20268;-74
2022/01/22 06:14:43;;;;;;;5.73;2.70;;;6.80;99.90;;;;;;5090149;28;20674;-73
2022/01/22 06:17:10;;;;;;;4.07;2.60;;;6.80;99.90;;;;;;5084382;28;20637;-72
2022/01/22 06:19:37;;;;;;;5.00;2.80;;;6.80;99.90;;;;;;5088012;28;20209;-73
2022/01/22 06:22:04;;;;;;;3.53;2.27;;;6.80;99.90;;;;;;5084246;28;20202;-74
2022/01/22 06:24:31;;;;;;;3.87;2.60;;;6.80;99.90;;;;;;5096836;28;20205;-73
2022/01/22 06:26:58;;;;;;;3.70;2.57;;;6.80;99.90;;;;;;5093434;28;20198;-73
2022/01/22 06:29:26;;;;;;;3.23;1.70;;;6.90;99.90;;;;;;5094254;28;20224;-73
2022/01/22 06:31:53;;;;;;;3.27;2.07;;;6.90;99.90;;;;;;5093867;28;20202;-72
2022/01/22 06:34:20;;;;;;;3.17;1.97;;;6.90;99.90;;;;;;5102857;28;20208;-72
2022/01/22 06:36:46;;;;;;;2.30;1.77;;;6.90;99.90;;;;;;5101635;28;20668;-73
2022/01/22 06:39:15;;;;;;;2.40;1.80;;;6.90;99.90;;;;;;5096314;28;20203;-73
2022/01/22 06:41:45;;;;;;;5.87;2.03;;;6.90;99.90;;;;;;5095241;28;20208;-73
2022/01/22 06:44:14;;;;;;;3.70;2.20;;;6.90;99.90;;;;;;5105108;28;20205;-72
2022/01/22 06:46:44;;;;;;;4.00;2.83;;;6.90;99.90;;;;;;5100454;28;20185;-73
2022/01/22 06:49:11;;;;;;;3.13;2.10;;;6.80;99.90;;;;;;5099376;28;20246;-72
2022/01/22 06:51:38;;;;;;;5.03;2.73;;;6.90;99.90;;;;;;5101094;28;20719;-72
2022/01/22 06:54:07;;;;;;;3.93;2.43;;;6.90;99.90;;;;;;5096861;28;20197;-73
2022/01/22 06:56:34;;;;;;;5.17;2.80;;;6.80;99.90;;;;;;5096209;28;20305;-73
2022/01/22 06:59:05;;;;;;;4.87;2.67;;;6.90;99.90;;;;;;5101760;28;20204;-72
2022/01/22 07:01:33;;;;;;;3.80;2.37;;;6.90;99.90;;;;;;5099711;28;20304;-73
2022/01/22 07:04:02;;;;;;;4.43;2.33;;;6.90;99.90;;;;;;5098873;28;20218;-73
2022/01/22 07:06:29;;;;;;;4.93;2.40;;;6.90;99.90;;;;;;5098994;28;20197;-72
2022/01/22 07:08:56;;;;;;;3.20;2.20;;;6.90;99.90;;;;;;5102488;28;20538;-72
2022/01/22 07:11:22;;;;;;;5.37;2.40;;;6.90;99.90;;;;;;5096035;28;20202;-72
2022/01/22 07:13:49;;;;;;;4.00;2.13;;;6.90;99.90;;;;;;5101400;28;20655;-73
2022/01/22 07:16:16;;;;;;;4.13;2.43;;;6.90;99.90;;;;;;5105083;28;20209;-72
2022/01/22 07:18:43;;;;;;;5.03;2.30;;;6.90;99.90;;;;;;5098879;28;20220;-73
2022/01/22 07:21:17;;;;;;;5.33;3.07;;;6.90;99.90;;;;;;5099515;28;20546;-74
2022/01/22 07:26:25;;;;;;;3.80;2.33;;;6.90;99.90;;;;;;5089853;28;20655;-74
2022/01/22 07:28:52;;;;;;;5.17;3.17;;;6.90;99.90;;;;;;5092131;28;20202;-74
2022/01/22 07:31:20;;;;;;;5.10;2.90;;;6.90;99.90;;;;;;5094286;28;20236;-73
2022/01/22 07:33:47;;;;;;;5.80;3.20;;;6.90;99.90;;;;;;5091839;28;20610;-73
2022/01/22 07:36:16;;;;;;;6.00;3.23;;;6.90;99.90;;;;;;5091125;28;20221;-74
2022/01/22 07:38:43;;;;;;;6.43;4.00;;;6.90;99.90;;;;;;5096143;28;20213;-73
2022/01/22 07:41:10;;;;;;;6.30;3.80;;;6.90;99.90;;;;;;5090899;28;20206;-73
2022/01/22 07:43:38;;;;;;;7.63;4.20;;;6.90;99.90;;;;;;5092397;28;20201;-72
2022/01/22 07:46:06;;;;;;;12.00;5.77;;;6.90;99.90;;;;;;5090292;28;20207;-73
2022/01/22 07:48:33;;;;;;;9.37;4.97;;;6.90;99.90;;;;;;5092556;28;20216;-72
2022/01/22 07:51:00;;;;;;;9.83;5.40;;;6.90;99.90;;;;;;5094854;28;20385;-72
2022/01/22 07:53:28;;;;;;;10.37;5.37;;;6.90;99.90;;;;;;5090725;28;20202;-72
2022/01/22 07:55:55;;;;;;;10.33;5.40;;;6.90;99.90;;;;;;5090349;28;20217;-72
2022/01/22 07:58:22;;;;;;;10.00;5.60;;;6.90;99.90;;;;;;5094859;28;20210;-73
2022/01/22 08:00:49;;;;;;;8.50;4.80;;;6.90;99.90;;;;;;5096097;28;20213;-73
2022/01/22 08:03:15;;;;;;;11.70;5.47;;;6.90;99.90;;;;;;5099032;28;20224;-73
2022/01/22 08:05:44;;;;;;;10.03;5.47;;;6.90;99.90;;;;;;5091132;28;20336;-73
2022/01/22 08:08:12;;;;;;;10.00;5.57;;;6.90;99.90;;;;;;5093214;28;20300;-73
2022/01/22 08:10:40;;;;;;;9.37;5.20;;;7.00;99.90;;;;;;5094491;28;20703;-73
2022/01/22 08:13:07;;;;;;;9.87;5.33;;;6.90;99.90;;;;;;5096272;28;20210;-73
2022/01/22 08:15:33;;;;;;;9.13;5.53;;;6.90;99.90;;;;;;5093680;28;20221;-73
2022/01/22 08:18:03;;;;;;;11.40;5.90;;;6.90;99.90;;;;;;5088645;28;20291;-74
2022/01/22 08:20:29;;;;;;;13.30;6.87;;;7.00;99.90;;;;;;5095254;28;20660;-73
2022/01/22 08:22:56;;;;;;;11.43;6.00;;;7.00;99.90;;;;;;5095305;28;20674;-74
2022/01/22 08:25:24;;;;;;;13.13;6.37;;;7.00;99.90;;;;;;5093287;28;20237;-73
2022/01/22 08:30:40;;;;;;;12.07;6.03;;;7.00;99.90;;;;;;5093237;28;20219;-74
2022/01/22 08:33:32;;;;;;;12.90;6.13;;;7.00;99.90;;;;;;5093134;28;20245;-73
2022/01/22 08:35:57;;;;;;;10.33;5.43;;;7.00;99.90;;;;;;5094531;28;20285;-73
2022/01/22 08:38:26;;;;;;;12.83;6.70;;;7.00;99.90;;;;;;5090673;28;20198;-74
2022/01/22 08:40:53;;;;;;;11.00;5.60;;;7.00;99.90;;;;;;5090973;28;20202;-73
2022/01/22 08:43:23;;;;;;;10.30;5.57;;;7.00;99.90;;;;;;5090099;28;20205;-73
2022/01/22 08:45:50;;;;;;;11.33;5.50;;;7.00;99.90;;;;;;5092051;28;20209;-73
2022/01/22 08:48:18;;;;;;;10.33;5.13;;;7.00;99.90;;;;;;5093326;28;20213;-73
2022/01/22 08:50:45;;;;;;;9.77;5.03;;;7.00;99.90;;;;;;5089980;28;20212;-74
2022/01/22 08:53:12;;;;;;;12.10;5.30;;;7.00;99.90;;;;;;5093471;28;20213;-73
2022/01/22 08:55:39;;;;;;;14.63;5.77;;;7.00;99.90;;;;;;5093880;28;20228;-72
2022/01/22 08:58:08;;;;;;;10.90;5.80;;;7.00;99.90;;;;;;5091396;28;20746;-73
2022/01/22 09:00:37;;;;;;;10.60;5.73;;;7.00;99.90;;;;;;5089902;28;20240;-73
2022/01/22 09:03:05;;;;;;;11.00;5.87;;;7.00;99.90;;;;;;5086239;28;20590;-68
2022/01/22 09:05:35;;;;;;;8.83;4.90;;;7.00;99.90;;;;;;5093096;28;20223;-68
2022/01/22 09:08:02;;;;;;;11.10;5.37;;;7.00;99.90;;;;;;5095139;28;20212;-68
2022/01/22 09:10:30;;;;;;;13.90;5.33;;;7.00;99.90;;;;;;5091488;28;20209;-73
2022/01/22 09:12:57;;;;;;;10.03;4.97;;;7.00;99.90;;;;;;5087910;28;20205;-72
2022/01/22 09:15:24;;;;;;;10.93;5.37;;;7.00;99.90;;;;;;5095524;28;20691;-74
2022/01/22 09:17:53;;;;;;;9.57;4.70;;;7.00;99.90;;;;;;5093395;28;20205;-73
2022/01/22 09:20:32;;;;;;;8.37;4.43;;;7.00;99.90;;;;;;5093294;28;20227;-74
2022/01/22 09:23:00;;;;;;;8.70;4.50;;;7.00;99.90;;;;;;5085696;28;20197;-68
2022/01/22 09:25:26;;;;;;;7.83;4.20;;;7.00;99.90;;;;;;5090074;28;20210;-68
2022/01/22 09:27:53;;;;;;;8.50;4.63;;;7.00;99.90;;;;;;5089357;28;20197;-69
2022/01/22 09:30:20;;;;;;;7.87;4.23;;;7.00;99.90;;;;;;5097885;28;20220;-68
2022/01/22 09:32:47;;;;;;;9.07;4.27;;;7.00;99.90;;;;;;5091585;28;20458;-68
2022/01/22 09:35:16;;;;;;;8.63;3.80;;;7.00;99.90;;;;;;5091785;28;20416;-69
2022/01/22 09:37:43;;;;;;;7.70;3.87;;;7.00;99.90;;;;;;5094310;28;20687;-68
2022/01/22 09:40:12;;;;;;;10.63;5.00;;;7.00;99.90;;;;;;5091144;28;20679;-68
2022/01/22 09:42:39;;;;;;;10.10;4.37;;;7.00;99.90;;;;;;5087260;28;20304;-68
2022/01/22 09:45:08;;;;;;;6.53;3.60;;;7.00;99.90;;;;;;5092651;28;20214;-68
2022/01/22 09:47:35;;;;;;;8.13;4.00;;;7.00;99.90;;;;;;5100146;28;20201;-68
2022/01/22 09:50:04;;;;;;;9.83;4.13;;;7.00;99.90;;;;;;5092646;28;20205;-68
2022/01/22 09:52:32;;;;;;;7.03;4.00;;;7.00;99.90;;;;;;5091454;28;20206;-69
2022/01/22 09:54:59;;;;;;;7.30;4.30;;;7.00;99.90;;;;;;5088153;28;20604;-68
2022/01/22 09:57:26;;;;;;;9.80;5.33;;;7.10;99.90;;;;;;5095291;28;20735;-68
2022/01/22 09:59:53;;;;;;;15.90;7.03;;;7.10;99.90;;;;;;5089797;28;20301;-68
2022/01/22 10:02:22;;;;;;;12.53;5.13;;;7.20;99.90;;;;;;5096409;28;20240;-68
2022/01/22 10:04:52;;;;;;;10.20;4.90;;;7.20;99.90;;;;;;5093782;28;20660;-69
2022/01/22 10:07:21;;;;;;;11.70;5.83;;;7.20;99.90;;;;;;5094669;28;20263;-67
2022/01/22 10:10:00;;;;;;;11.10;5.13;;;7.20;99.90;;;;;;5102225;28;20202;-68
2022/01/22 10:12:29;;;;;;;9.30;4.83;;;7.20;99.90;;;;;;5091902;28;20202;-68
2022/01/22 10:15:11;;;;;;;9.37;4.57;;;7.30;99.90;;;;;;5088448;28;20205;-68
2022/01/22 10:17:46;;;;;;;9.17;4.97;;;7.30;99.90;;;;;;5094291;28;20209;-68
2022/01/22 10:20:27;;;;;;;9.07;4.60;;;7.30;99.90;;;;;;5099905;28;20236;-70
2022/01/22 10:22:58;;;;;;;7.97;4.00;;;7.30;99.90;;;;;;5095693;28;20201;-68
2022/01/22 10:25:30;;;;;;;12.27;5.40;;;7.40;99.90;;;;;;5096983;28;20201;-68
2022/01/22 10:27:58;;;;;;;6.90;4.13;;;7.40;99.90;;;;;;5099325;28;20253;-68
2022/01/22 10:30:34;;;;;;;7.37;4.63;;;7.40;99.90;;;;;;5100511;28;20208;-68
2022/01/22 10:33:19;;;;;;;9.40;5.10;;;7.50;99.90;;;;;;5099589;28;20247;-68
2022/01/22 10:35:46;;;;;;;8.90;5.00;;;7.50;99.90;;;;;;5095507;28;20239;-68
2022/01/22 10:38:15;;;;;;;9.07;4.80;;;7.50;99.90;;;;;;5094137;28;20221;-68
2022/01/22 10:40:43;;;;;;;7.77;4.30;;;7.60;99.90;;;;;;5097630;28;20215;-68
2022/01/22 10:43:31;;;;;;;6.60;4.07;;;7.50;99.90;;;;;;5101732;28;20552;-68
2022/01/22 10:46:07;;;;;;;7.80;4.40;;;7.60;99.90;;;;;;5087697;28;20209;-67
2022/01/22 10:48:36;;;;;;;7.27;3.97;;;7.70;99.90;;;;;;5093714;28;20205;-67
2022/01/22 10:51:06;;;;;;;6.27;3.93;;;7.70;99.90;;;;;;5095145;28;20609;-67
2022/01/22 10:53:42;;;;;;;5.30;3.57;;;7.70;99.90;;;;;;5096984;28;20212;-68
2022/01/22 10:56:13;;;;;;;5.17;3.60;;;7.70;99.90;;;;;;5093541;28;20232;-68
2022/01/22 10:58:54;;;;;;;9.07;4.37;;;7.70;99.90;;;;;;5091712;28;20213;-67
2022/01/22 11:01:22;;;;;;;8.77;4.13;;;7.80;99.90;;;;;;5088617;28;20212;-67
2022/01/22 11:04:06;;;;;;;6.33;4.07;;;7.80;99.90;;;;;;5092314;28;20557;-67
2022/01/22 11:06:33;;;;;;;4.33;3.00;;;7.80;99.90;;;;;;5092672;28;20576;-67
2022/01/22 11:09:00;;;;;;;6.40;3.20;;;7.80;99.90;;;;;;5097082;28;20201;-67
2022/01/22 11:11:29;;;;;;;3.87;2.67;;;7.90;99.90;;;;;;5092072;28;20609;-68
2022/01/22 11:13:56;;;;;;;4.40;2.90;;;7.90;99.90;;;;;;5089296;28;20201;-67
2022/01/22 11:16:25;;;;;;;2.80;2.30;;;8.00;99.90;;;;;;5096094;28;20229;-67
2022/01/22 11:18:54;;;;;;;3.50;2.40;;;7.90;99.90;;;;;;5092449;28;20202;-68
2022/01/22 11:21:21;;;;;;;5.00;3.33;;;7.90;99.90;;;;;;5095025;28;20209;-67
2022/01/22 11:23:50;;;;;;;4.33;2.70;;;8.00;99.90;;;;;;5088882;28;20197;-68
2022/01/22 11:26:17;;;;;;;3.00;1.93;;;8.00;99.90;;;;;;5089165;28;20201;-67
2022/01/22 11:28:47;;;;;;;2.23;1.90;;;8.10;99.90;;;;;;5090660;28;20274;-67
2022/01/22 11:31:17;;;;;;;3.23;2.30;;;8.00;99.90;;;;;;5093192;28;20659;-67
2022/01/22 11:33:46;;;;;;;2.43;2.10;;;7.90;99.90;;;;;;5095021;28;20545;-67
2022/01/22 11:36:19;;;;;;;5.70;3.37;;;7.80;99.90;;;;;;5098169;28;20198;-67
2022/01/22 11:38:53;;;;;;;4.37;2.47;;;7.80;99.90;;;;;;5101932;28;20208;-67
2022/01/22 11:41:22;;;;;;;3.33;2.40;;;7.70;99.90;;;;;;5094735;28;20203;-67
2022/01/22 11:44:10;;;;;;;4.70;2.93;;;7.70;99.90;;;;;;5098705;28;20231;-67
2022/01/22 11:46:41;;;;;;;4.67;2.90;;;7.60;99.90;;;;;;5099316;28;20223;-66
2022/01/22 11:49:25;;;;;;;3.67;2.57;;;7.60;99.90;;;;;;5099811;28;20212;-66
2022/01/22 11:51:53;;;;;;;3.57;2.77;;;7.50;99.90;;;;;;5096492;28;20698;-67
2022/01/22 11:54:22;;;;;;;3.20;2.50;;;7.60;99.90;;;;;;5098104;28;20201;-67
2022/01/22 11:56:52;;;;;;;5.07;3.53;;;7.60;99.90;;;;;;5099503;28;20218;-69
2022/01/22 11:59:22;;;;;;;5.47;3.60;;;7.60;99.90;;;;;;5096175;28;20564;-69
2022/01/22 12:02:04;;;;;;;3.60;2.83;;;7.60;99.90;;;;;;5098860;28;20652;-69
2022/01/22 12:04:53;;;;;;;5.13;3.40;;;7.60;99.90;;;;;;5096195;28;20545;-69
2022/01/22 12:07:25;;;;;;;4.90;3.20;;;7.50;99.90;;;;;;5094191;28;20294;-69
2022/01/22 12:16:16;;;;;;;3.50;2.17;;;7.50;99.90;;;;;;5086376;28;20284;-67
2022/01/22 12:18:51;;;;;;;5.10;2.53;;;7.50;99.90;;;;;;5091032;28;20228;-66
2022/01/22 12:21:31;;;;;;;4.07;2.97;;;7.50;99.90;;;;;;5099060;28;20201;-67
2022/01/22 12:23:59;;;;;;;4.17;3.17;;;7.40;99.90;;;;;;5095446;28;20562;-67
2022/01/22 12:27:01;;;;;;;4.33;2.97;;;7.50;99.90;;;;;;5091063;28;20201;-66
2022/01/22 12:29:42;;;;;;;4.53;3.10;;;7.50;99.90;;;;;;5094740;28;20197;-67
2022/01/22 12:32:32;;;;;;;5.67;3.10;;;7.50;99.90;;;;;;5094823;28;20228;-67
2022/01/22 12:35:14;;;;;;;7.83;3.93;;;7.50;99.90;;;;;;5092690;28;20193;-67
2022/01/22 12:37:47;;;;;;;5.20;3.50;;;7.60;99.90;;;;;;5089733;28;20217;-67
2022/01/22 12:40:27;;;;;;;6.10;3.33;;;7.70;99.90;;;;;;5098695;28;20209;-67
2022/01/22 12:43:03;;;;;;;6.03;3.20;;;7.60;99.90;;;;;;5097211;28;20720;-67
2022/01/22 12:45:30;;;;;;;4.17;3.00;;;7.80;99.90;;;;;;5092737;28;20246;-67
2022/01/22 12:47:58;;;;;;;4.17;2.93;;;7.80;99.90;;;;;;5095215;28;20197;-67
2022/01/22 12:50:28;;;;;;;4.57;3.07;;;7.80;99.90;;;;;;5098091;28;20572;-67
2022/01/22 12:52:56;;;;;;;5.80;3.70;;;7.90;99.90;;;;;;5093060;28;20202;-67
2022/01/22 12:55:38;;;;;;;4.73;2.73;;;7.90;99.90;;;;;;5091200;28;20198;-71
2022/01/22 12:58:05;;;;;;;3.33;2.50;;;7.90;99.90;;;;;;5088360;28;20221;-72
2022/01/22 13:00:32;;;;;;;5.30;2.73;;;7.80;99.90;;;;;;5090533;28;20227;-72
2022/01/22 13:03:00;;;;;;;4.10;2.60;;;7.90;99.90;;;;;;5088544;28;20201;-72
2022/01/22 13:05:29;;;;;;;3.40;2.60;;;7.90;99.90;;;;;;5092244;28;20625;-72
2022/01/22 13:08:01;;;;;;;3.77;2.63;;;7.90;99.90;;;;;;5088228;28;20193;-72
2022/01/22 13:10:33;;;;;;;3.97;3.10;;;7.90;99.90;;;;;;5098569;28;20258;-72
2022/01/22 13:13:01;;;;;;;3.83;3.17;;;8.00;99.90;;;;;;5097234;28;20208;-72
2022/01/22 13:15:28;;;;;;;3.50;3.03;;;7.90;99.90;;;;;;5098342;28;20288;-73
2022/01/22 13:17:56;;;;;;;4.43;3.40;;;7.90;99.90;;;;;;5093629;28;20289;-72
2022/01/22 13:20:26;;;;;;;4.83;2.87;;;7.90;99.90;;;;;;5094168;28;20207;-72
2022/01/22 13:22:54;;;;;;;4.27;2.70;;;7.90;99.90;;;;;;5097463;28;20228;-72
2022/01/22 13:25:22;;;;;;;5.70;3.00;;;8.00;99.90;;;;;;5097210;28;20197;-72
2022/01/22 13:28:04;;;;;;;3.17;2.70;;;7.90;99.90;;;;;;5091595;28;20786;-72
2022/01/22 13:30:39;;;;;;;6.80;3.50;;;8.00;99.90;;;;;;5091865;28;20198;-72
2022/01/22 13:33:15;;;;;;;4.07;3.17;;;8.00;99.90;;;;;;5088407;28;20295;-72
2022/01/22 13:35:57;;;;;;;4.30;2.70;;;8.00;99.90;;;;;;5093126;28;20563;-72
2022/01/22 13:38:53;;;;;;;4.90;3.27;;;8.00;99.90;;;;;;5094478;28;20218;-73
2022/01/22 13:49:39;;;;;;;3.83;2.67;;;8.00;99.90;;;;;;5089913;28;20262;-72
2022/01/22 13:52:09;;;;;;;4.63;2.50;;;8.00;99.90;;;;;;5092787;28;20212;-72
2022/01/22 13:54:39;;;;;;;3.63;2.80;;;7.90;99.90;;;;;;5088264;28;20684;-72
2022/01/22 13:57:09;;;;;;;5.60;3.13;;;7.90;99.90;;;;;;5099503;28;20271;-71
2022/01/22 13:59:38;;;;;;;4.83;2.90;;;7.80;99.90;;;;;;5091163;28;20292;-72
2022/01/22 14:02:10;;;;;;;3.73;3.23;;;7.90;99.90;;;;;;5096167;28;20201;-71
2022/01/22 14:04:39;;;;;;;5.50;3.20;;;7.90;99.90;;;;;;5099867;28;20664;-73
2022/01/22 14:07:19;;;;;;;3.77;2.97;;;7.80;99.90;;;;;;5101733;28;20250;-73
2022/01/22 14:10:03;;;;;;;3.87;2.70;;;7.70;99.90;;;;;;5094551;28;20659;-71
2022/01/22 14:12:36;;;;;;;3.80;2.60;;;7.60;99.90;;;;;;5095455;28;20198;-73
2022/01/22 14:15:10;;;;;;;4.33;2.60;;;7.70;99.90;;;;;;5090565;28;20203;-72
2022/01/22 14:17:53;;;;;;;3.57;2.53;;;7.60;99.90;;;;;;5100624;28;20217;-72
2022/01/22 14:20:26;;;;;;;4.27;3.17;;;7.60;99.90;;;;;;5100030;28;20205;-71
2022/01/22 14:23:04;;;;;;;5.20;3.73;;;7.60;99.90;;;;;;5096268;28;20193;-73
2022/01/22 14:25:31;;;;;;;3.87;3.17;;;7.60;99.90;;;;;;5097078;28;20193;-71
2022/01/22 14:28:00;;;;;;;4.40;3.30;;;7.60;99.90;;;;;;5103759;28;20201;-71
2022/01/22 14:30:32;;;;;;;4.40;3.37;;;7.60;99.90;;;;;;5095597;28;20207;-73
2022/01/22 14:32:59;;;;;;;3.20;2.63;;;7.60;99.90;;;;;;5097095;28;20259;-72
2022/01/22 14:35:27;;;;;;;4.03;3.57;;;7.60;99.90;;;;;;5102061;28;20662;-71